Aérodrome :











RETROUVEZ-NOUS SUR...

 
LOGIN :

S'inscrire | Disclaimer

   EN    FR    IT 

 









Légende :    VFR   VFR Marginal   IFR   IFR Intensif   IFR Très Intensif
Visi : 
Plafond : 
>= 8 km
>= 3000ft
5 à 8 km
1000 à 3000 ft
1500m à 5 km
500 à 1000 ft
800 à 1500m
200 à 500 ft
< 800m
< 200 ft
Symboles :   Orages  Brouillard  Fortes neiges  Fortes précipitations  Vent > 20 kt






- Altitude de l'aérodrome : 15 ft
- Code IATA : PLS


MBPV - Providenciales

DERNIER METAR :
  • 212300Z 00000KT 9999 SCT012 25/21 Q1012

METARs EXPIRÉS :
  • 212200Z 14005KT 9999 SCT012 28/20 Q1012
  • 212100Z 14005KT 9999 SCT015 27/20 Q1012
  • 212000Z 15005KT 9999 SCT012 28/20 Q1013

TAF MBPV
Valide du 21 à 18h jusqu'au 22 à 18h UTC


211630Z 2118/2218 14012KT 9999 SCT022



MET'MAP, la Météo Aéronautique d'un coup d'oeil ! - Copyright ORBIFLY Décembre 2007 - Disclaimer

ORBIFLY MET'MAP TEAM :

Programmation & Développement : Alexandra Zaïnal
Sur une idée originale de : Baudouin d'Aumeries
Assistance à la programmation : Marc-Olivier Méhu
Soutien technique & logistique : Manuel Goepfert

Contact : metmap@orbifly.com




SOURCES & CREDITS :

   NOAA       Earth
Advisory